createdAt,value
2022-12-13T00:00:49.990Z,93.10
2022-12-13T00:03:17.595Z,93.20
2022-12-13T00:05:45.975Z,93.10
2022-12-13T00:08:14.955Z,92.90
2022-12-13T00:10:42.630Z,92.80
2022-12-13T00:13:10.169Z,93.30
2022-12-13T00:15:37.780Z,93.30
2022-12-13T00:18:05.706Z,93.60
2022-12-13T00:20:33.583Z,93.40
2022-12-13T00:23:01.171Z,93.20
2022-12-13T00:25:30.090Z,93.10
2022-12-13T00:27:57.599Z,93.20
2022-12-13T00:30:25.763Z,93.30
2022-12-13T00:32:53.382Z,93.30
2022-12-13T00:35:20.946Z,93.20
2022-12-13T00:37:48.838Z,93.10
2022-12-13T00:40:16.804Z,92.80
2022-12-13T00:42:45.701Z,93.10
2022-12-13T00:45:13.771Z,93.20
2022-12-13T00:47:41.528Z,93.10
2022-12-13T00:50:09.882Z,93.00
2022-12-13T00:52:37.523Z,93.00
2022-12-13T00:55:05.420Z,92.90
2022-12-13T00:57:33.588Z,92.80
2022-12-13T01:00:02.565Z,92.70
2022-12-13T01:02:30.150Z,92.80
2022-12-13T01:04:58.088Z,92.70
2022-12-13T01:07:25.674Z,92.80
2022-12-13T01:09:53.294Z,92.70
2022-12-13T01:12:20.866Z,92.60
2022-12-13T01:14:53.058Z,92.60
2022-12-13T01:17:24.796Z,92.50
2022-12-13T01:19:52.368Z,92.60
2022-12-13T01:22:20.123Z,92.70
2022-12-13T01:24:47.832Z,92.70
2022-12-13T01:27:15.454Z,92.80
2022-12-13T01:29:43.007Z,92.80
2022-12-13T01:32:10.547Z,92.70
2022-12-13T01:34:39.705Z,92.80
2022-12-13T01:37:07.291Z,92.50
2022-12-13T01:39:38.273Z,92.60
2022-12-13T01:42:06.275Z,92.50
2022-12-13T01:44:59.261Z,92.60
2022-12-13T01:47:29.921Z,92.60
2022-12-13T01:50:00.085Z,93.10
2022-12-13T01:52:29.445Z,93.40
2022-12-13T01:54:57.612Z,93.20
2022-12-13T01:57:32.081Z,92.90
2022-12-13T01:59:59.665Z,93.00
2022-12-13T02:02:27.228Z,92.90
2022-12-13T02:04:57.234Z,92.90
2022-12-13T02:07:27.620Z,92.80
2022-12-13T02:09:57.318Z,92.70
2022-12-13T02:17:44.825Z,92.60
2022-12-13T02:20:27.455Z,92.60
2022-12-13T02:23:07.087Z,92.60
2022-12-13T02:25:45.512Z,92.50
2022-12-13T02:28:30.405Z,92.70
2022-12-13T02:31:04.915Z,92.70
2022-12-13T02:33:37.727Z,92.60
2022-12-13T02:36:09.285Z,92.60
2022-12-13T02:38:39.424Z,92.60
2022-12-13T02:41:13.567Z,92.60
2022-12-13T02:43:45.803Z,92.60
2022-12-13T02:46:16.136Z,92.60
2022-12-13T02:48:43.834Z,92.50
2022-12-13T02:51:12.386Z,92.60
2022-12-13T02:53:41.620Z,92.60
2022-12-13T02:56:09.174Z,92.50
2022-12-13T02:58:38.495Z,92.40
2022-12-13T03:01:28.750Z,92.60
2022-12-13T03:04:02.651Z,92.50
2022-12-13T03:06:34.798Z,92.50
2022-12-13T03:09:10.943Z,92.40
2022-12-13T03:12:02.601Z,92.40
2022-12-13T03:14:31.893Z,92.80
2022-12-13T03:17:01.619Z,92.40
2022-12-13T03:19:30.599Z,92.40
2022-12-13T03:21:58.162Z,92.50
2022-12-13T03:24:25.801Z,92.50
2022-12-13T03:26:53.370Z,92.40
2022-12-13T03:29:24.222Z,92.40
2022-12-13T03:31:52.501Z,92.30
2022-12-13T03:34:22.329Z,92.20
2022-12-13T03:36:52.475Z,92.20
2022-12-13T03:39:20.670Z,92.30
2022-12-13T03:41:48.327Z,92.40
2022-12-13T03:44:15.869Z,92.30
2022-12-13T03:46:43.541Z,92.50
2022-12-13T03:49:15.367Z,92.40
2022-12-13T03:51:44.832Z,92.40
2022-12-13T03:54:13.767Z,92.40
2022-12-13T03:56:41.360Z,92.50
2022-12-13T03:59:08.986Z,92.50
2022-12-13T04:01:36.586Z,92.60
2022-12-13T04:04:04.245Z,92.60
2022-12-13T04:06:33.186Z,92.60
2022-12-13T04:09:01.075Z,92.40
2022-12-13T04:11:47.428Z,92.70
2022-12-13T04:14:22.166Z,92.60
2022-12-13T04:16:51.038Z,92.70
2022-12-13T04:19:23.665Z,92.50
2022-12-13T04:21:52.043Z,92.50
2022-12-13T04:24:19.602Z,92.70
2022-12-13T04:26:48.526Z,92.70
2022-12-13T04:29:16.128Z,92.60
2022-12-13T04:31:43.766Z,92.50
2022-12-13T04:34:11.357Z,92.60
2022-12-13T04:36:38.991Z,92.80
2022-12-13T04:39:22.722Z,92.60
2022-12-13T04:41:52.569Z,92.40
2022-12-13T04:44:27.903Z,92.20
2022-12-13T04:47:01.302Z,92.50
2022-12-13T04:49:29.430Z,92.40
2022-12-13T04:52:01.306Z,92.20
2022-12-13T04:54:35.662Z,92.20
2022-12-13T04:57:06.483Z,92.40
2022-12-13T04:59:34.083Z,92.30
2022-12-13T05:02:01.708Z,92.10
2022-12-13T05:04:32.972Z,92.30
2022-12-13T05:07:02.329Z,92.30
2022-12-13T05:09:29.992Z,92.40
2022-12-13T05:12:01.823Z,92.60
2022-12-13T05:14:31.205Z,92.50
2022-12-13T05:16:58.958Z,93.50
2022-12-13T05:19:30.881Z,93.80
2022-12-13T05:22:01.268Z,94.10
2022-12-13T05:24:30.410Z,93.80
2022-12-13T05:26:58.102Z,94.00
2022-12-13T05:29:27.483Z,94.30
2022-12-13T05:31:56.422Z,94.70
2022-12-13T05:34:24.211Z,94.70
2022-12-13T05:36:52.147Z,94.10
2022-12-13T05:39:28.170Z,93.60
2022-12-13T05:42:02.021Z,93.30
2022-12-13T05:44:30.467Z,93.30
2022-12-13T05:46:59.409Z,93.20
2022-12-13T05:49:30.218Z,93.00
2022-12-13T05:51:57.839Z,93.00
2022-12-13T05:54:25.401Z,92.90
2022-12-13T05:56:52.984Z,92.80
2022-12-13T05:59:20.686Z,92.80
2022-12-13T06:01:48.324Z,92.90
2022-12-13T06:04:22.762Z,92.70
2022-12-13T06:06:51.157Z,92.60
2022-12-13T06:09:19.258Z,92.80
2022-12-13T06:11:46.840Z,92.70
2022-12-13T06:14:22.516Z,92.70
2022-12-13T06:16:51.582Z,92.60
2022-12-13T06:19:20.788Z,92.70
2022-12-13T06:21:48.382Z,92.50
2022-12-13T06:24:16.240Z,92.50
2022-12-13T06:26:45.496Z,92.40
2022-12-13T06:29:23.552Z,92.30
2022-12-13T06:31:53.804Z,92.30
2022-12-13T06:34:22.813Z,93.50
2022-12-13T06:36:50.353Z,93.00
2022-12-13T06:39:18.068Z,92.80
2022-12-13T06:41:45.684Z,92.60
2022-12-13T06:44:13.567Z,92.50
2022-12-13T06:46:41.387Z,92.60
2022-12-13T06:49:09.066Z,92.70
2022-12-13T06:51:37.978Z,92.80
2022-12-13T06:54:05.540Z,92.70
2022-12-13T06:56:33.678Z,92.80
2022-12-13T06:59:02.312Z,92.70
2022-12-13T07:01:36.622Z,92.90
2022-12-13T07:04:05.025Z,92.60
2022-12-13T07:06:53.928Z,92.40
2022-12-13T07:09:21.595Z,92.50
2022-12-13T07:11:52.294Z,92.40
2022-12-13T07:14:20.342Z,92.40
2022-12-13T07:16:47.933Z,92.10
2022-12-13T07:19:23.912Z,92.30
2022-12-13T07:21:52.246Z,92.30
2022-12-13T07:24:21.405Z,92.20
2022-12-13T07:26:48.954Z,92.30
2022-12-13T07:29:22.052Z,92.10
2022-12-13T07:31:50.436Z,92.10
2022-12-13T07:34:18.231Z,92.00
2022-12-13T07:36:45.837Z,91.90
2022-12-13T07:39:13.693Z,92.20
2022-12-13T07:41:42.575Z,92.10
2022-12-13T07:44:10.142Z,92.30
2022-12-13T07:46:37.801Z,92.30
2022-12-13T07:49:06.161Z,92.20
2022-12-13T07:51:34.040Z,92.30
2022-12-13T07:54:06.910Z,92.10
2022-12-13T07:56:35.145Z,92.10
2022-12-13T07:59:04.134Z,92.30
2022-12-13T08:01:34.465Z,93.20
2022-12-13T08:04:06.068Z,93.00
2022-12-13T08:06:35.755Z,92.80
2022-12-13T08:09:03.401Z,92.80
2022-12-13T08:11:31.411Z,92.70
2022-12-13T08:13:59.121Z,92.60
2022-12-13T08:16:29.670Z,92.50
2022-12-13T08:19:03.283Z,92.30
2022-12-13T08:24:21.725Z,92.40
2022-12-13T08:26:49.364Z,92.20
2022-12-13T08:29:23.097Z,92.10
2022-12-13T08:32:03.479Z,91.90
2022-12-13T08:34:31.539Z,92.20
2022-12-13T08:37:02.525Z,92.00
2022-12-13T08:39:30.779Z,92.10
2022-12-13T08:42:16.760Z,92.00
2022-12-13T08:44:46.984Z,92.00
2022-12-13T08:47:23.267Z,91.80
2022-12-13T08:49:54.069Z,91.70
2022-12-13T08:52:22.411Z,91.80
2022-12-13T08:54:50.234Z,91.70
2022-12-13T08:57:17.858Z,91.60
2022-12-13T08:59:45.523Z,91.80
2022-12-13T09:02:13.937Z,91.70
2022-12-13T09:04:43.448Z,91.60
2022-12-13T09:07:11.023Z,91.70
2022-12-13T09:09:38.738Z,91.60
2022-12-13T09:12:10.716Z,91.50
2022-12-13T09:14:45.046Z,91.60
2022-12-13T09:17:14.794Z,91.30
2022-12-13T09:19:58.457Z,91.60
2022-12-13T09:22:33.249Z,92.00
2022-12-13T09:25:02.824Z,92.20
2022-12-13T09:27:30.757Z,92.20
2022-12-13T09:29:58.432Z,92.20
2022-12-13T09:32:27.460Z,92.10
2022-12-13T09:34:56.405Z,91.80
2022-12-13T09:37:24.068Z,91.50
2022-12-13T09:39:54.970Z,91.50
2022-12-13T09:42:30.913Z,91.40
2022-12-13T09:45:02.458Z,91.20
2022-12-13T09:47:35.411Z,91.00
2022-12-13T09:50:07.281Z,90.90
2022-12-13T09:52:43.036Z,90.70
2022-12-13T09:55:19.167Z,90.70
2022-12-13T09:57:47.003Z,90.50
2022-12-13T10:00:16.730Z,90.50
2022-12-13T10:02:45.924Z,90.50
2022-12-13T10:05:34.364Z,90.20
2022-12-13T10:08:07.842Z,90.20
2022-12-13T10:10:35.416Z,90.20
2022-12-13T10:13:09.243Z,90.30
2022-12-13T10:15:38.602Z,89.80
2022-12-13T10:18:07.684Z,89.50
2022-12-13T10:20:36.771Z,89.30
2022-12-13T10:25:54.716Z,90.00
2022-12-13T10:28:32.532Z,89.20
2022-12-13T10:31:00.666Z,90.00
2022-12-13T10:33:30.401Z,89.20
2022-12-13T10:36:07.088Z,88.90
2022-12-13T10:38:36.727Z,89.10
2022-12-13T10:41:04.656Z,88.50
2022-12-13T10:43:32.845Z,88.50
2022-12-13T10:46:01.982Z,87.40
2022-12-13T10:48:38.463Z,87.20
2022-12-13T10:51:10.329Z,87.10
2022-12-13T10:53:47.002Z,87.50
2022-12-13T10:56:23.219Z,86.90
2022-12-13T10:58:53.111Z,87.20
2022-12-13T11:01:22.298Z,87.00
2022-12-13T11:04:02.085Z,86.60
2022-12-13T11:06:43.513Z,86.20
2022-12-13T11:09:23.005Z,85.50
2022-12-13T11:11:51.692Z,85.80
2022-12-13T11:14:32.165Z,85.80
2022-12-13T11:17:05.959Z,86.20
2022-12-13T11:19:38.685Z,85.80
2022-12-13T11:22:08.487Z,86.10
2022-12-13T11:24:38.035Z,86.40
2022-12-13T11:27:15.626Z,85.50
2022-12-13T11:29:50.974Z,85.20
2022-12-13T11:32:24.049Z,85.40
2022-12-13T11:34:56.327Z,85.30
2022-12-13T11:37:29.502Z,85.10
2022-12-13T11:40:01.211Z,85.70
2022-12-13T11:42:31.510Z,85.90
2022-12-13T11:45:02.357Z,85.10
2022-12-13T11:47:34.398Z,84.80
2022-12-13T11:50:03.796Z,84.20
2022-12-13T11:52:36.527Z,84.60
2022-12-13T11:55:06.071Z,83.90
2022-12-13T11:57:38.618Z,84.10
2022-12-13T12:00:13.236Z,84.30
2022-12-13T12:02:42.509Z,84.20
2022-12-13T12:05:28.240Z,84.20
2022-12-13T12:10:52.242Z,84.50
2022-12-13T12:13:22.286Z,84.50
2022-12-13T12:15:55.154Z,84.70
2022-12-13T12:18:23.356Z,85.20
2022-12-13T12:20:57.276Z,85.20
2022-12-13T12:23:31.677Z,85.20
2022-12-13T12:26:04.270Z,84.80
2022-12-13T12:28:43.905Z,84.80
2022-12-13T12:31:21.648Z,84.10
2022-12-13T12:33:54.686Z,83.90
2022-12-13T12:36:30.117Z,83.90
2022-12-13T12:39:06.651Z,84.10
2022-12-13T12:41:45.584Z,83.90
2022-12-13T12:44:17.881Z,84.40
2022-12-13T12:49:57.068Z,84.10
2022-12-13T12:52:29.537Z,84.30
2022-12-13T12:55:04.034Z,84.50
2022-12-13T12:57:39.282Z,84.80
2022-12-13T13:00:11.821Z,84.80
2022-12-13T13:02:42.146Z,84.90
2022-12-13T13:05:13.652Z,84.80
2022-12-13T13:07:51.436Z,84.70
2022-12-13T13:10:26.818Z,84.70
2022-12-13T13:13:11.390Z,85.00
2022-12-13T13:15:57.848Z,85.00
2022-12-13T13:18:45.426Z,85.00
2022-12-13T13:21:33.602Z,84.30
2022-12-13T13:24:21.647Z,84.50
2022-12-13T13:26:51.711Z,84.80
2022-12-13T13:29:43.910Z,84.50
2022-12-13T13:32:35.562Z,84.20
2022-12-13T13:35:20.781Z,83.70
2022-12-13T13:37:48.915Z,83.60
2022-12-13T13:40:31.563Z,83.70
2022-12-13T13:43:06.952Z,84.00
2022-12-13T13:45:53.871Z,84.50
2022-12-13T13:48:26.786Z,84.60
2022-12-13T13:51:15.054Z,84.40
2022-12-13T13:54:01.515Z,84.90
2022-12-13T13:56:35.612Z,85.10
2022-12-13T13:59:17.940Z,84.60
2022-12-13T14:02:01.736Z,84.80
2022-12-13T14:04:44.462Z,85.20
2022-12-13T14:07:30.621Z,85.50
2022-12-13T14:10:08.161Z,85.10
2022-12-13T14:12:53.425Z,84.70
2022-12-13T14:15:49.645Z,85.10
2022-12-13T14:18:32.447Z,85.30
2022-12-13T14:21:04.037Z,85.40
2022-12-13T14:23:38.330Z,85.60
2022-12-13T14:26:17.394Z,85.30
2022-12-13T14:28:48.269Z,85.30
2022-12-13T14:31:22.180Z,85.40
2022-12-13T14:33:51.883Z,85.50
2022-12-13T14:36:26.521Z,85.50
2022-12-13T14:39:00.036Z,85.50
2022-12-13T14:41:28.046Z,86.00
2022-12-13T14:43:55.621Z,85.80
2022-12-13T14:46:24.737Z,86.10
2022-12-13T14:48:53.631Z,86.40
2022-12-13T14:51:34.962Z,86.10
2022-12-13T14:54:04.132Z,86.00
2022-12-13T14:56:31.825Z,86.80
2022-12-13T14:59:00.292Z,86.40
2022-12-13T15:01:31.209Z,86.60
2022-12-13T15:04:18.262Z,86.50
2022-12-13T15:06:48.480Z,86.50
2022-12-13T15:09:16.960Z,87.00
2022-12-13T15:11:45.466Z,86.80
2022-12-13T15:14:15.832Z,87.80
2022-12-13T15:16:50.412Z,87.90
2022-12-13T15:19:20.736Z,88.00
2022-12-13T15:22:02.194Z,88.00
2022-12-13T15:24:31.827Z,89.00
2022-12-13T15:27:00.443Z,89.90
2022-12-13T15:29:30.016Z,90.20
2022-12-13T15:31:59.560Z,90.40
2022-12-13T15:34:37.200Z,90.70
2022-12-13T15:37:06.516Z,90.90
2022-12-13T15:39:38.869Z,90.80
2022-12-13T15:42:06.950Z,90.90
2022-12-13T15:44:48.109Z,90.70
2022-12-13T15:47:27.889Z,90.80
2022-12-13T15:49:57.848Z,90.90
2022-12-13T15:52:30.251Z,91.20
2022-12-13T15:54:59.073Z,91.30
2022-12-13T15:57:27.465Z,91.60
2022-12-13T16:00:10.831Z,91.50
2022-12-13T16:02:47.870Z,91.60
2022-12-13T16:05:21.488Z,91.70
2022-12-13T16:07:56.189Z,91.90
2022-12-13T16:10:25.080Z,92.00
2022-12-13T16:12:59.068Z,92.10
2022-12-13T16:15:28.814Z,92.00
2022-12-13T16:18:07.415Z,92.00
2022-12-13T16:20:35.572Z,92.10
2022-12-13T16:23:08.703Z,92.30
2022-12-13T16:25:36.915Z,92.30
2022-12-13T16:28:04.667Z,92.40
2022-12-13T16:30:47.126Z,92.60
2022-12-13T16:33:30.444Z,92.70
2022-12-13T16:35:58.472Z,92.70
2022-12-13T16:38:27.495Z,92.80
2022-12-13T16:40:56.073Z,92.80
2022-12-13T16:43:33.073Z,92.80
2022-12-13T16:47:14.997Z,93.10
2022-12-13T16:48:52.706Z,93.40
2022-12-13T16:51:20.303Z,93.30
2022-12-13T16:53:47.892Z,93.30
2022-12-13T16:56:21.329Z,93.30
2022-12-13T16:58:50.363Z,93.50
2022-12-13T17:01:19.643Z,93.60
2022-12-13T17:03:47.455Z,93.70
2022-12-13T17:06:18.387Z,94.00
2022-12-13T17:08:47.047Z,94.00
2022-12-13T17:11:17.988Z,93.90
2022-12-13T17:13:48.057Z,93.70
2022-12-13T17:16:15.930Z,93.90
2022-12-13T17:18:43.540Z,93.90
2022-12-13T17:21:11.421Z,93.80
2022-12-13T17:23:40.637Z,94.10
2022-12-13T17:26:09.413Z,94.00
2022-12-13T17:28:37.102Z,94.20
2022-12-13T17:31:05.542Z,94.30
2022-12-13T17:33:33.314Z,94.30
2022-12-13T17:36:02.045Z,94.20
2022-12-13T17:38:29.705Z,94.10
2022-12-13T17:41:00.693Z,94.10
2022-12-13T17:43:34.320Z,94.20
2022-12-13T17:46:03.710Z,94.40
2022-12-13T17:48:37.217Z,94.70
2022-12-13T17:51:08.269Z,94.50
2022-12-13T17:53:36.397Z,94.40
2022-12-13T17:56:07.553Z,94.80
2022-12-13T17:58:35.670Z,94.60
2022-12-13T18:01:10.868Z,94.50
2022-12-13T18:03:38.882Z,94.50
2022-12-13T18:06:07.725Z,94.50
2022-12-13T18:08:36.239Z,94.70
2022-12-13T18:11:31.772Z,94.90
2022-12-13T18:13:54.540Z,94.80
2022-12-13T18:16:23.234Z,94.90
2022-12-13T18:18:55.359Z,94.90
2022-12-13T18:21:24.246Z,94.80
2022-12-13T18:23:55.617Z,94.80
2022-12-13T18:26:25.321Z,94.90
2022-12-13T18:28:53.088Z,95.10
2022-12-13T18:31:21.989Z,95.10
2022-12-13T18:33:50.062Z,95.10
2022-12-13T18:36:18.302Z,95.00
2022-12-13T18:38:45.896Z,95.30
2022-12-13T18:41:14.978Z,95.40
2022-12-13T18:43:44.572Z,95.20
2022-12-13T18:46:12.692Z,95.20
2022-12-13T18:48:40.818Z,95.10
2022-12-13T18:51:09.596Z,95.20
2022-12-13T18:53:38.075Z,95.40
2022-12-13T18:56:08.171Z,95.40
2022-12-13T18:58:37.620Z,95.40
2022-12-13T19:01:07.625Z,95.40
2022-12-13T19:03:37.076Z,95.70
2022-12-13T19:06:05.458Z,95.90
2022-12-13T19:08:33.052Z,96.00
2022-12-13T19:11:01.778Z,95.70
2022-12-13T19:13:30.029Z,95.70
2022-12-13T19:15:58.405Z,95.60
2022-12-13T19:18:28.435Z,95.60
2022-12-13T19:20:56.160Z,95.40
2022-12-13T19:23:24.139Z,95.50
2022-12-13T19:25:52.074Z,95.60
2022-12-13T19:28:19.653Z,95.50
2022-12-13T19:30:48.055Z,95.40
2022-12-13T19:33:16.546Z,95.30
2022-12-13T19:35:46.737Z,95.60
2022-12-13T19:38:14.583Z,95.50
2022-12-13T19:40:42.556Z,95.40
2022-12-13T19:43:11.196Z,95.80
2022-12-13T19:45:38.769Z,96.00
2022-12-13T19:48:06.397Z,95.70
2022-12-13T19:50:33.943Z,95.70
2022-12-13T19:53:02.845Z,95.40
2022-12-13T19:55:30.400Z,95.40
2022-12-13T19:57:58.799Z,95.20
2022-12-13T20:00:26.501Z,95.20
2022-12-13T20:02:54.853Z,95.00
2022-12-13T20:05:22.495Z,95.10
2022-12-13T20:07:51.092Z,95.10
2022-12-13T20:10:20.302Z,95.10
2022-12-13T20:12:47.922Z,95.00
2022-12-13T20:15:15.480Z,95.00
2022-12-13T20:17:43.092Z,95.00
2022-12-13T20:20:11.392Z,95.00
2022-12-13T20:22:39.103Z,95.00
2022-12-13T20:25:07.359Z,94.80
2022-12-13T20:27:36.432Z,94.90
2022-12-13T20:30:04.936Z,94.80
2022-12-13T20:32:32.554Z,95.00
2022-12-13T20:35:00.162Z,94.80
2022-12-13T20:37:28.452Z,94.80
2022-12-13T20:39:56.051Z,94.80
2022-12-13T20:42:23.631Z,94.70
2022-12-13T20:44:52.608Z,94.80
2022-12-13T20:47:20.228Z,94.70
2022-12-13T20:49:48.374Z,94.70
2022-12-13T20:52:16.854Z,94.70
2022-12-13T20:54:44.405Z,94.60
2022-12-13T20:57:11.936Z,94.70
2022-12-13T20:59:39.577Z,94.90
2022-12-13T21:02:08.484Z,94.80
2022-12-13T21:04:36.088Z,94.80
2022-12-13T21:07:03.730Z,94.90
2022-12-13T21:09:31.291Z,94.70
2022-12-13T21:11:58.833Z,94.60
2022-12-13T21:14:27.331Z,94.60
2022-12-13T21:16:55.833Z,94.60
2022-12-13T21:19:25.737Z,94.50
2022-12-13T21:21:53.839Z,94.50
2022-12-13T21:24:22.439Z,94.60
2022-12-13T21:26:51.110Z,94.50
2022-12-13T21:29:18.805Z,94.50
2022-12-13T21:31:48.692Z,94.40
2022-12-13T21:34:17.559Z,94.30
2022-12-13T21:36:47.293Z,94.20
2022-12-13T21:39:15.707Z,94.30
2022-12-13T21:41:43.565Z,94.40
2022-12-13T21:44:11.542Z,94.30
2022-12-13T21:49:26.819Z,94.60
2022-12-13T21:51:55.996Z,94.60
2022-12-13T21:54:23.659Z,94.60
2022-12-13T21:57:08.845Z,94.70
2022-12-13T21:59:36.600Z,94.50
2022-12-13T22:02:15.809Z,94.40
2022-12-13T22:04:44.798Z,94.20
2022-12-13T22:07:14.916Z,94.20
2022-12-13T22:09:42.561Z,94.30
2022-12-13T22:12:11.186Z,94.10
2022-12-13T22:14:38.752Z,94.40
2022-12-13T22:17:06.444Z,94.30
2022-12-13T22:19:34.055Z,94.30
2022-12-13T22:22:01.784Z,94.10
2022-12-13T22:24:30.820Z,94.20
2022-12-13T22:26:58.428Z,94.10
2022-12-13T22:29:26.049Z,94.10
2022-12-13T22:31:53.758Z,94.10
2022-12-13T22:34:21.402Z,94.00
2022-12-13T22:36:49.076Z,94.20
2022-12-13T22:39:17.772Z,94.30
2022-12-13T22:41:47.496Z,94.40
2022-12-13T22:44:15.465Z,94.10
2022-12-13T22:46:43.277Z,94.10
2022-12-13T22:49:14.351Z,93.90
2022-12-13T22:51:42.348Z,94.30
2022-12-13T22:54:10.024Z,94.20
2022-12-13T22:56:38.037Z,94.20
2022-12-13T22:59:08.191Z,94.30
2022-12-13T23:01:37.259Z,94.30
2022-12-13T23:04:05.865Z,94.20
2022-12-13T23:06:34.416Z,94.20
2022-12-13T23:09:03.415Z,94.20
2022-12-13T23:11:54.179Z,94.10
2022-12-13T23:14:28.838Z,94.00
2022-12-13T23:16:56.526Z,94.20
2022-12-13T23:19:48.877Z,94.10
2022-12-13T23:22:12.072Z,93.90
2022-12-13T23:24:39.629Z,93.80
2022-12-13T23:27:07.295Z,93.80
2022-12-13T23:29:36.289Z,93.90
2022-12-13T23:32:03.901Z,93.90
2022-12-13T23:34:31.552Z,93.70
2022-12-13T23:36:59.137Z,93.70
2022-12-13T23:39:26.713Z,93.70
2022-12-13T23:41:54.278Z,93.70
2022-12-13T23:44:21.992Z,93.80
2022-12-13T23:46:50.877Z,93.60
2022-12-13T23:49:18.416Z,93.70
2022-12-13T23:51:45.978Z,93.50
2022-12-13T23:54:16.374Z,93.40
2022-12-13T23:56:44.200Z,93.20
2022-12-13T23:59:12.049Z,93.30
